CDT,Max TemperatureF,Mean TemperatureF,Min TemperatureF,Max Dew PointF,MeanDew PointF,Min DewpointF,Max Humidity, Mean Humidity, Min Humidity, Max Sea Level PressureIn, Mean Sea Level PressureIn, Min Sea Level PressureIn, Max VisibilityMiles, Mean VisibilityMiles, Min VisibilityMiles, Max Wind SpeedMPH, Mean Wind SpeedMPH, Max Gust SpeedMPH,PrecipitationIn, CloudCover, Events, WindDirDegrees
2012-10-1,80,64,48,48,42,28,82,53,16,29.97,29.91,29.89,10,10,5,21,5,26,0.00,1,,350
2012-10-2,75,58,42,46,37,30,81,49,19,29.98,29.93,29.86,10,9,4,7,2,,0.00,1,,337
2012-10-3,80,58,37,45,32,16,87,48,9,29.94,29.89,29.82,10,10,7,18,4,25,0.00,1,,178
2012-10-4,62,55,48,45,35,28,76,50,29,30.29,30.17,29.92,10,10,7,20,10,31,0.00,2,Rain,323
2012-10-5,53,42,32,32,27,18,81,56,26,30.34,30.29,30.24,10,10,10,14,5,21,0.00,1,,317
2012-10-6,51,40,28,28,23,21,75,52,30,30.36,30.31,30.27,10,10,10,15,7,21,0.00,3,,324
2012-10-7,60,40,21,28,21,12,86,53,16,30.30,30.19,30.05,10,10,7,14,3,21,0.00,0,,221
2012-10-8,71,54,37,36,29,21,75,45,15,30.05,29.93,29.82,10,10,10,21,10,30,0.00,0,,191
2012-10-9,60,46,33,43,32,16,70,49,21,30.14,29.95,29.82,10,10,7,18,8,25,0.00,1,,292
2012-10-10,64,45,26,30,23,16,86,50,16,30.24,30.16,30.07,10,10,7,12,2,18,0.00,0,,228
2012-10-11,71,56,41,37,31,21,70,46,23,30.34,30.12,30.03,10,10,7,21,7,26,0.00,2,,231
2012-10-12,60,48,35,46,24,12,72,38,19,30.38,30.26,30.03,10,10,10,16,10,23,0.00,5,Rain,101
2012-10-13,77,66,55,66,60,48,88,81,65,29.99,29.78,29.56,10,8,2,17,10,31,1.83,7,Rain,182
2012-10-14,66,56,46,59,47,36,94,68,32,29.98,29.81,29.57,10,10,3,25,10,39,0.86,3,Rain,320
2012-10-15,75,57,39,46,41,36,87,60,25,30.00,29.92,29.79,10,10,10,10,2,,0.00,0,,166
2012-10-16,80,66,53,52,47,41,77,57,26,29.78,29.55,29.43,10,10,7,14,6,17,0.00,1,,205
2012-10-17,66,58,50,55,42,25,88,55,31,29.59,29.48,29.34,10,10,7,25,8,33,0.11,4,Rain,269
2012-10-18,53,48,44,43,33,19,87,59,28,29.58,29.52,29.48,10,10,5,28,16,41,0.35,5,Rain,280
2012-10-19,51,46,42,43,41,39,87,81,71,29.83,29.72,29.57,10,10,10,26,18,36,0.06,8,Rain,312
2012-10-20,66,50,35,45,40,30,93,68,35,29.84,29.79,29.71,10,9,0,14,3,17,0.00,1,Fog,138
2012-10-21,82,66,50,64,55,43,82,68,48,29.80,29.76,29.72,10,10,10,18,6,23,0.00,2,,153
2012-10-22,78,70,62,72,64,57,88,80,57,29.80,29.76,29.73,10,8,3,15,6,20,0.55,6,Rain,83
2012-10-23,82,71,60,66,61,55,88,75,54,29.80,29.73,29.65,10,7,1,17,6,25,0.00,6,,187
2012-10-24,77,66,53,66,59,48,88,81,65,29.76,29.73,29.69,10,7,0,15,5,23,0.00,7,Fog-Rain,294
2012-10-25,53,46,39,48,36,27,93,78,61,30.33,29.99,29.64,10,9,3,24,15,32,0.46,8,Rain,336
2012-10-26,44,37,30,30,27,27,86,65,49,30.50,30.43,30.32,10,10,10,13,7,18,0.00,5,,325
2012-10-27,46,36,26,32,27,23,86,66,43,30.42,30.35,30.27,10,10,7,7,2,,0.00,1,,300
2012-10-28,53,42,32,30,29,27,81,61,38,30.35,30.29,30.24,10,10,10,8,2,9,0.00,3,,153
2012-10-29,57,50,41,32,27,25,65,47,31,30.28,30.21,30.13,10,10,10,20,8,25,0.00,4,,151
2012-10-30,55,45,35,32,28,18,75,55,23,30.15,30.08,30.03,10,10,10,9,4,9,0.00,3,,77
2012-10-31,60,45,30,37,30,25,87,64,29,30.08,30.03,29.98,10,10,7,7,0,,0.00,0,,279